Time;durP1;ratioP1;P1;durP2;ratioP2;P2;SDS_P1;SDS_P2;PMS_P1;PMS_P2;Temp;Humidity;BMP_temperature;BMP_pressure;BME280_temperature;BME280_humidity;BME280_pressure;Samples;Min_cycle;Max_cycle;Signal;HPM_P1;HPM_P2
2023/04/02 00:00:59;;;;;;;;;;;8.40;99.90;;;;;;2066875;28;19913;-73
2023/04/02 00:02:19;;;;;;;;;;;8.40;99.90;;;;;;2060360;28;19913;-73
2023/04/02 00:03:21;;;;;;;;;;;8.40;99.90;;;;;;2075645;28;19999;-73
2023/04/02 00:04:22;;;;;;;;;;;8.40;99.90;;;;;;2075285;28;19905;-72
2023/04/02 00:05:29;;;;;;;;;;;8.40;99.90;;;;;;2058954;28;19914;-73
2023/04/02 00:06:31;;;;;;;;;;;8.40;99.90;;;;;;2060567;28;19905;-73
2023/04/02 00:07:32;;;;;;;;;;;8.40;99.90;;;;;;2059519;28;19914;-73
2023/04/02 00:08:37;;;;;;;;;;;8.30;99.90;;;;;;2058891;28;20313;-73
2023/04/02 00:09:38;;;;;;;;;;;8.30;99.90;;;;;;2060812;28;19918;-73
2023/04/02 00:10:45;;;;;;;;;;;8.30;99.90;;;;;;2059366;28;19910;-72
2023/04/02 00:11:47;;;;;;;;;;;8.30;99.90;;;;;;2059839;28;19910;-73
2023/04/02 00:13:03;;;;;;;;;;;8.30;99.90;;;;;;2059959;28;19914;-73
2023/04/02 00:14:05;;;;;;;;;;;8.30;99.90;;;;;;2061909;28;20428;-73
2023/04/02 00:15:11;;;;;;;;;;;8.30;99.90;;;;;;2059355;28;20354;-73
2023/04/02 00:16:12;;;;;;;;;;;8.30;99.90;;;;;;2060832;28;19910;-73
2023/04/02 00:17:13;;;;;;;;;;;8.30;99.90;;;;;;2060760;28;19978;-73
2023/04/02 00:18:15;;;;;;;;;;;8.30;99.90;;;;;;2066817;28;19952;-73
2023/04/02 00:19:18;;;;;;;;;;;8.30;99.90;;;;;;2059480;28;19917;-73
2023/04/02 00:20:19;;;;;;;;;;;8.30;99.90;;;;;;2060302;28;20002;-73
2023/04/02 00:21:26;;;;;;;;;;;8.30;99.90;;;;;;2058521;28;19996;-73
2023/04/02 00:22:30;;;;;;;;;;;8.30;99.90;;;;;;2060213;28;19913;-72
2023/04/02 00:23:30;;;;;;;;;;;8.20;99.90;;;;;;2059432;28;20294;-74
2023/04/02 00:24:31;;;;;;;;;;;8.20;99.90;;;;;;2060058;28;19953;-73
2023/04/02 00:25:35;;;;;;;;;;;8.20;99.90;;;;;;2059282;28;19945;-73
2023/04/02 00:26:41;;;;;;;;;;;8.20;99.90;;;;;;2058625;28;20358;-73
2023/04/02 00:27:42;;;;;;;;;;;8.20;99.90;;;;;;2059432;28;20434;-73
2023/04/02 00:28:43;;;;;;;;;;;8.20;99.90;;;;;;2059482;28;20341;-73
2023/04/02 00:29:44;;;;;;;;;;;8.20;99.90;;;;;;2058847;28;20039;-73
2023/04/02 00:30:46;;;;;;;;;;;8.10;99.90;;;;;;2060902;28;19916;-73
2023/04/02 00:31:48;;;;;;;;;;;8.10;99.90;;;;;;2059722;28;20082;-73
2023/04/02 00:32:48;;;;;;;;;;;8.10;99.90;;;;;;2059667;28;20696;-73
2023/04/02 00:33:49;;;;;;;;;;;8.10;99.90;;;;;;2060419;28;20324;-73
2023/04/02 00:34:49;;;;;;;;;;;8.10;99.90;;;;;;2058339;28;20036;-73
2023/04/02 00:35:51;;;;;;;;;;;8.10;99.90;;;;;;2060082;28;20293;-73
2023/04/02 00:36:52;;;;;;;;;;;8.10;99.90;;;;;;2059506;28;19914;-73
2023/04/02 00:37:53;;;;;;;;;;;8.10;99.90;;;;;;2059088;28;19914;-73
2023/04/02 00:38:55;;;;;;;;;;;8.10;99.90;;;;;;2060238;28;20380;-73
2023/04/02 00:39:59;;;;;;;;;;;8.00;99.90;;;;;;2057044;28;19914;-73
2023/04/02 00:41:05;;;;;;;;;;;8.10;99.90;;;;;;2058843;28;20346;-73
2023/04/02 00:42:05;;;;;;;;;;;8.00;99.90;;;;;;2059797;28;19937;-72
2023/04/02 00:43:06;;;;;;;;;;;8.00;99.90;;;;;;2059401;28;20027;-73
2023/04/02 00:44:11;;;;;;;;;;;8.00;99.90;;;;;;2059644;28;20423;-73
2023/04/02 00:45:31;;;;;;;;;;;8.00;99.90;;;;;;2058577;28;19941;-73
2023/04/02 00:46:45;;;;;;;;;;;8.00;99.90;;;;;;2060580;28;19960;-73
2023/04/02 00:47:46;;;;;;;;;;;8.00;99.90;;;;;;2065974;28;19960;-73
2023/04/02 00:48:49;;;;;;;;;;;8.00;99.90;;;;;;2066349;28;19960;-73
2023/04/02 00:49:54;;;;;;;;;;;8.00;99.90;;;;;;2058335;28;19972;-73
2023/04/02 00:50:55;;;;;;;;;;;8.00;99.90;;;;;;2059991;28;19914;-73
2023/04/02 00:51:57;;;;;;;;;;;8.00;99.90;;;;;;2060165;28;19914;-73
2023/04/02 00:52:58;;;;;;;;;;;8.00;99.90;;;;;;2059328;28;19917;-73
2023/04/02 00:54:01;;;;;;;;;;;8.00;99.90;;;;;;2059328;28;19921;-73
2023/04/02 00:55:04;;;;;;;;;;;7.90;99.90;;;;;;2058832;28;20286;-73
2023/04/02 00:56:11;;;;;;;;;;;7.90;99.90;;;;;;2064256;28;20012;-72
2023/04/02 00:57:14;;;;;;;;;;;7.90;99.90;;;;;;2058464;28;19909;-73
2023/04/02 00:58:22;;;;;;;;;;;7.90;99.90;;;;;;2060113;28;19930;-73
2023/04/02 00:59:30;;;;;;;;;;;8.00;99.90;;;;;;2064393;28;19913;-73
2023/04/02 01:00:34;;;;;;;;;;;8.00;99.90;;;;;;2058294;28;19996;-73
2023/04/02 01:01:41;;;;;;;;;;;7.90;99.90;;;;;;2061506;28;19913;-73
2023/04/02 01:02:41;;;;;;;;;;;8.00;99.90;;;;;;2066195;28;20028;-73
2023/04/02 01:03:43;;;;;;;;;;;7.90;99.90;;;;;;2067905;28;19960;-73
2023/04/02 01:04:55;;;;;;;;;;;7.90;99.90;;;;;;2061043;28;19910;-73
2023/04/02 01:06:15;;;;;;;;;;;7.90;99.90;;;;;;2058072;28;20428;-73
2023/04/02 01:07:16;;;;;;;;;;;7.90;99.90;;;;;;2059837;28;19913;-73
2023/04/02 01:08:17;;;;;;;;;;;7.90;99.90;;;;;;2058206;28;19906;-73
2023/04/02 01:09:27;;;;;;;;;;;7.90;99.90;;;;;;2058649;28;19909;-73
2023/04/02 01:10:36;;;;;;;;;;;7.90;99.90;;;;;;2059243;28;20017;-72
2023/04/02 01:11:38;;;;;;;;;;;7.90;99.90;;;;;;2059898;28;19914;-73
2023/04/02 01:12:43;;;;;;;;;;;7.90;99.90;;;;;;2058932;28;19917;-73
2023/04/02 01:13:44;;;;;;;;;;;7.80;99.90;;;;;;2058323;28;19910;-73
2023/04/02 01:14:49;;;;;;;;;;;7.80;99.90;;;;;;2060202;28;19968;-73
2023/04/02 01:15:55;;;;;;;;;;;7.80;99.90;;;;;;2058292;28;20065;-73
2023/04/02 01:17:01;;;;;;;;;;;7.80;99.90;;;;;;2059501;28;19918;-73
2023/04/02 01:18:02;;;;;;;;;;;7.80;99.90;;;;;;2059988;28;19997;-73
2023/04/02 01:19:17;;;;;;;;;;;7.70;99.90;;;;;;2059564;28;19913;-73
2023/04/02 01:20:24;;;;;;;;;;;7.70;99.90;;;;;;2057737;28;19926;-72
2023/04/02 01:21:52;;;;;;;;;;;7.70;99.90;;;;;;2059859;28;20467;-72
2023/04/02 01:23:06;;;;;;;;;;;7.70;99.90;;;;;;2058072;28;19913;-73
2023/04/02 01:24:09;;;;;;;;;;;7.70;99.90;;;;;;2061089;28;19914;-73
2023/04/02 01:25:16;;;;;;;;;;;7.70;99.90;;;;;;2059149;28;19914;-73
2023/04/02 01:26:43;;;;;;;;;;;7.70;99.90;;;;;;2059079;28;20305;-73
2023/04/02 01:27:46;;;;;;;;;;;7.60;99.90;;;;;;2060073;28;20329;-73
2023/04/02 01:29:16;;;;;;;;;;;7.60;99.90;;;;;;2058796;28;19937;-73
2023/04/02 01:30:17;;;;;;;;;;;7.60;99.90;;;;;;2056605;28;20578;-73
2023/04/02 01:31:18;;;;;;;;;;;7.60;99.90;;;;;;2058825;28;19922;-73
2023/04/02 01:32:20;;;;;;;;;;;7.60;99.90;;;;;;2059409;28;19989;-73
2023/04/02 01:33:22;;;;;;;;;;;7.60;99.90;;;;;;2059545;28;20334;-72
2023/04/02 01:34:24;;;;;;;;;;;7.50;99.90;;;;;;2061089;28;19906;-73
2023/04/02 01:35:26;;;;;;;;;;;7.50;99.90;;;;;;2066302;28;19909;-72
2023/04/02 01:36:47;;;;;;;;;;;7.50;99.90;;;;;;2064158;28;19988;-73
2023/04/02 01:38:04;;;;;;;;;;;7.50;99.90;;;;;;2059348;28;20086;-73
2023/04/02 01:39:11;;;;;;;;;;;7.50;99.90;;;;;;2059207;28;19941;-72
2023/04/02 01:40:15;;;;;;;;;;;7.50;99.90;;;;;;2057873;28;20008;-73
2023/04/02 01:41:34;;;;;;;;;;;7.40;99.90;;;;;;2059670;28;20001;-73
2023/04/02 01:42:47;;;;;;;;;;;7.40;99.90;;;;;;2058838;28;20330;-73
2023/04/02 01:43:55;;;;;;;;;;;7.40;99.90;;;;;;2058174;28;19913;-72
2023/04/02 01:45:04;;;;;;;;;;;7.40;99.90;;;;;;2060446;28;19918;-73
2023/04/02 01:46:22;;;;;;;;;;;7.40;99.90;;;;;;2065242;28;20921;-73
2023/04/02 01:47:26;;;;;;;;;;;7.40;99.90;;;;;;2063680;28;19917;-72
2023/04/02 01:48:29;;;;;;;;;;;7.50;99.90;;;;;;2059237;28;19910;-72
2023/04/02 01:49:29;;;;;;;;;;;7.40;99.90;;;;;;2058435;28;19906;-73
2023/04/02 01:50:35;;;;;;;;;;;7.40;99.90;;;;;;2058361;28;19912;-73
2023/04/02 01:51:38;;;;;;;;;;;7.40;99.90;;;;;;2059181;28;19921;-73
2023/04/02 01:52:40;;;;;;;;;;;7.40;99.90;;;;;;2058837;28;19948;-72
2023/04/02 01:53:41;;;;;;;;;;;7.40;99.90;;;;;;2059164;28;20370;-73
2023/04/02 01:54:41;;;;;;;;;;;7.40;99.90;;;;;;2060323;28;20262;-73
2023/04/02 01:55:53;;;;;;;;;;;7.40;99.90;;;;;;2059850;28;19996;-73
2023/04/02 01:56:56;;;;;;;;;;;7.40;99.90;;;;;;2073982;28;19905;-73
2023/04/02 01:57:57;;;;;;;;;;;7.50;99.90;;;;;;2067126;28;19909;-72
2023/04/02 01:58:58;;;;;;;;;;;7.40;99.90;;;;;;2060298;28;19941;-72
2023/04/02 02:00:00;;;;;;;;;;;7.40;99.90;;;;;;2058835;28;19910;-73
2023/04/02 02:01:07;;;;;;;;;;;7.40;99.90;;;;;;2059029;28;20397;-73
2023/04/02 02:02:10;;;;;;;;;;;7.40;99.90;;;;;;2057781;28;19916;-73
2023/04/02 02:03:11;;;;;;;;;;;7.40;99.90;;;;;;2057876;28;19967;-73
2023/04/02 02:04:12;;;;;;;;;;;7.40;99.90;;;;;;2057167;28;20370;-73
2023/04/02 02:05:15;;;;;;;;;;;7.40;99.90;;;;;;2060062;28;19909;-73
2023/04/02 02:06:16;;;;;;;;;;;7.40;99.90;;;;;;2059291;28;20000;-73
2023/04/02 02:07:18;;;;;;;;;;;7.40;99.90;;;;;;2059142;28;19913;-73
2023/04/02 02:08:38;;;;;;;;;;;7.30;99.90;;;;;;2058897;28;20365;-72
2023/04/02 02:09:39;;;;;;;;;;;7.30;99.90;;;;;;2059078;28;19910;-73
2023/04/02 02:10:39;;;;;;;;;;;7.30;99.90;;;;;;2058098;28;20453;-73
2023/04/02 02:11:40;;;;;;;;;;;7.30;99.90;;;;;;2058403;28;19917;-73
2023/04/02 02:12:42;;;;;;;;;;;7.30;99.90;;;;;;2059309;28;19909;-72
2023/04/02 02:13:51;;;;;;;;;;;7.30;99.90;;;;;;2059274;28;19965;-72
2023/04/02 02:14:52;;;;;;;;;;;7.30;99.90;;;;;;2062337;28;19916;-73
2023/04/02 02:15:55;;;;;;;;;;;7.30;99.90;;;;;;2061873;28;19920;-73
2023/04/02 02:16:58;;;;;;;;;;;7.30;99.90;;;;;;2065427;28;19932;-72
2023/04/02 02:18:02;;;;;;;;;;;7.30;99.90;;;;;;2066597;28;20281;-73
2023/04/02 02:19:03;;;;;;;;;;;7.30;99.90;;;;;;2059176;28;19916;-73
2023/04/02 02:20:10;;;;;;;;;;;7.30;99.90;;;;;;2057647;28;20478;-73
2023/04/02 02:21:15;;;;;;;;;;;7.30;99.90;;;;;;2059570;28;19957;-73
2023/04/02 02:22:27;;;;;;;;;;;7.30;99.90;;;;;;2058586;28;20362;-73
2023/04/02 02:23:28;;;;;;;;;;;7.20;99.90;;;;;;2057710;28;19934;-73
2023/04/02 02:24:31;;;;;;;;;;;7.30;99.90;;;;;;2059175;28;19918;-72
2023/04/02 02:25:32;;;;;;;;;;;7.30;99.90;;;;;;2059403;28;19965;-73
2023/04/02 02:26:34;;;;;;;;;;;7.20;99.90;;;;;;2059931;28;20293;-72
2023/04/02 02:27:46;;;;;;;;;;;7.20;99.90;;;;;;2058743;28;20610;-73
2023/04/02 02:28:49;;;;;;;;;;;7.20;99.90;;;;;;2057789;28;19972;-73
2023/04/02 02:29:54;;;;;;;;;;;7.20;99.90;;;;;;2056266;28;19910;-73
2023/04/02 02:30:55;;;;;;;;;;;7.20;99.90;;;;;;2059443;28;19965;-73
2023/04/02 02:31:56;;;;;;;;;;;7.20;99.90;;;;;;2058651;28;20001;-73
2023/04/02 02:32:57;;;;;;;;;;;7.20;99.90;;;;;;2059731;28;19996;-72
2023/04/02 02:34:01;;;;;;;;;;;7.20;99.90;;;;;;2066221;28;19909;-72
2023/04/02 02:35:10;;;;;;;;;;;7.20;99.90;;;;;;2066640;28;20777;-73
2023/04/02 02:36:29;;;;;;;;;;;7.20;99.90;;;;;;2059372;28;20420;-73
2023/04/02 02:37:34;;;;;;;;;;;7.20;99.90;;;;;;2058919;28;19913;-72
2023/04/02 02:38:43;;;;;;;;;;;7.20;99.90;;;;;;2059189;28;19914;-73
2023/04/02 02:39:46;;;;;;;;;;;7.20;99.90;;;;;;2058792;28;19914;-73
2023/04/02 02:40:49;;;;;;;;;;;7.20;99.90;;;;;;2058436;28;19917;-73
2023/04/02 02:41:52;;;;;;;;;;;7.20;99.90;;;;;;2060183;28;19924;-73
2023/04/02 02:42:56;;;;;;;;;;;7.20;99.90;;;;;;2058154;28;19910;-72
2023/04/02 02:44:03;;;;;;;;;;;7.20;99.90;;;;;;2058844;28;19910;-73
2023/04/02 02:45:05;;;;;;;;;;;7.20;99.90;;;;;;2065141;28;19988;-72
2023/04/02 02:46:06;;;;;;;;;;;7.20;99.90;;;;;;2063489;28;19913;-73
2023/04/02 02:47:14;;;;;;;;;;;7.10;99.90;;;;;;2059238;28;19917;-73
2023/04/02 02:48:17;;;;;;;;;;;7.10;99.90;;;;;;2067848;28;19921;-73
2023/04/02 02:49:20;;;;;;;;;;;7.10;99.90;;;;;;2064851;28;20436;-73
2023/04/02 02:50:23;;;;;;;;;;;7.10;99.90;;;;;;2059266;28;20266;-72
2023/04/02 02:51:26;;;;;;;;;;;7.10;99.90;;;;;;2073443;28;19917;-73
2023/04/02 02:52:29;;;;;;;;;;;7.10;99.90;;;;;;2065338;28;20325;-73
2023/04/02 02:53:30;;;;;;;;;;;7.10;99.90;;;;;;2058441;28;19914;-73
2023/04/02 02:54:31;;;;;;;;;;;7.00;99.90;;;;;;2058510;28;19909;-73
2023/04/02 02:55:33;;;;;;;;;;;7.00;99.90;;;;;;2058396;28;20275;-73
2023/04/02 02:56:35;;;;;;;;;;;7.00;99.90;;;;;;2059195;28;19980;-73
2023/04/02 02:57:42;;;;;;;;;;;7.00;99.90;;;;;;2059316;28;19910;-73
2023/04/02 02:58:43;;;;;;;;;;;7.00;99.90;;;;;;2072704;28;20000;-72
2023/04/02 02:59:44;;;;;;;;;;;7.00;99.90;;;;;;2073205;28;19909;-73
2023/04/02 03:00:45;;;;;;;;;;;7.00;99.90;;;;;;2059113;28;19914;-73
2023/04/02 03:01:46;;;;;;;;;;;7.00;99.90;;;;;;2073347;28;19956;-73
2023/04/02 03:02:48;;;;;;;;;;;7.00;99.90;;;;;;2070470;28;20016;-73
2023/04/02 03:03:51;;;;;;;;;;;7.00;99.90;;;;;;2062214;28;20000;-73
2023/04/02 03:04:53;;;;;;;;;;;7.00;99.90;;;;;;2060059;28;20008;-73
2023/04/02 03:05:56;;;;;;;;;;;7.00;99.90;;;;;;2056089;28;19984;-73
2023/04/02 03:06:57;;;;;;;;;;;7.00;99.90;;;;;;2057114;28;19913;-73
2023/04/02 03:08:00;;;;;;;;;;;7.00;99.90;;;;;;2057021;28;19945;-73
2023/04/02 03:09:06;;;;;;;;;;;7.00;99.90;;;;;;2058162;28;19914;-73
2023/04/02 03:10:13;;;;;;;;;;;7.00;99.90;;;;;;2059439;28;19906;-73
2023/04/02 03:11:21;;;;;;;;;;;7.00;99.90;;;;;;2059019;28;19937;-73
2023/04/02 03:12:24;;;;;;;;;;;7.00;99.90;;;;;;2057530;28;19906;-73
2023/04/02 03:13:31;;;;;;;;;;;7.00;99.90;;;;;;2059633;28;20004;-73
2023/04/02 03:14:41;;;;;;;;;;;7.00;99.90;;;;;;2056982;28;19917;-73
2023/04/02 03:16:00;;;;;;;;;;;6.90;99.90;;;;;;2057915;28;19921;-72
2023/04/02 03:17:26;;;;;;;;;;;6.90;99.90;;;;;;2059070;28;19910;-73
2023/04/02 03:18:46;;;;;;;;;;;6.90;99.90;;;;;;2058592;28;19909;-73
2023/04/02 03:19:53;;;;;;;;;;;6.90;99.90;;;;;;2058889;28;19914;-73
2023/04/02 03:20:58;;;;;;;;;;;6.90;99.90;;;;;;2058218;28;20408;-73
2023/04/02 03:22:06;;;;;;;;;;;6.90;99.90;;;;;;2059886;28;20301;-73
2023/04/02 03:23:15;;;;;;;;;;;6.90;99.90;;;;;;2058312;28;19917;-73
2023/04/02 03:24:31;;;;;;;;;;;6.90;99.90;;;;;;2058846;28;19910;-73
2023/04/02 03:25:39;;;;;;;;;;;6.80;99.90;;;;;;2059121;28;19910;-73
2023/04/02 03:26:43;;;;;;;;;;;6.80;99.90;;;;;;2058578;28;19910;-73
2023/04/02 03:27:45;;;;;;;;;;;6.80;99.90;;;;;;2058157;28;19910;-73
2023/04/02 03:28:49;;;;;;;;;;;6.80;99.90;;;;;;2058923;28;19910;-73
2023/04/02 03:30:03;;;;;;;;;;;6.70;99.90;;;;;;2064914;28;19910;-73
2023/04/02 03:31:06;;;;;;;;;;;6.70;99.90;;;;;;2065156;28;19914;-73
2023/04/02 03:32:10;;;;;;;;;;;6.70;99.90;;;;;;2058316;28;20358;-73
2023/04/02 03:33:16;;;;;;;;;;;6.70;99.90;;;;;;2058903;28;19909;-73
2023/04/02 03:34:24;;;;;;;;;;;6.70;99.90;;;;;;2057740;28;19910;-72
2023/04/02 03:35:34;;;;;;;;;;;6.60;99.90;;;;;;2060630;28;19913;-73
2023/04/02 03:36:42;;;;;;;;;;;6.60;99.90;;;;;;2060040;28;19910;-73
2023/04/02 03:37:50;;;;;;;;;;;6.60;99.90;;;;;;2074064;28;19905;-73
2023/04/02 03:39:23;;;;;;;;;;;6.60;99.90;;;;;;2072993;28;19905;-73
2023/04/02 03:40:25;;;;;;;;;;;6.60;99.90;;;;;;2064329;28;20395;-73
2023/04/02 03:41:49;;;;;;;;;;;6.60;99.90;;;;;;2060362;28;20290;-72
2023/04/02 03:42:52;;;;;;;;;;;6.50;99.90;;;;;;2059703;28;19937;-73
2023/04/02 03:43:55;;;;;;;;;;;6.50;99.90;;;;;;2057273;28;20333;-73
2023/04/02 03:44:55;;;;;;;;;;;6.50;99.90;;;;;;2057503;28;20427;-73
2023/04/02 03:45:58;;;;;;;;;;;6.50;99.90;;;;;;2058039;28;19972;-73
2023/04/02 03:47:04;;;;;;;;;;;6.50;99.90;;;;;;2073864;28;19905;-72
2023/04/02 03:48:08;;;;;;;;;;;6.50;99.90;;;;;;2072986;28;19921;-73
2023/04/02 03:49:22;;;;;;;;;;;6.50;99.90;;;;;;2060724;28;20059;-73
2023/04/02 03:50:42;;;;;;;;;;;6.50;99.90;;;;;;2059560;28;19910;-73
2023/04/02 03:51:49;;;;;;;;;;;6.50;99.90;;;;;;2065083;28;19925;-73
2023/04/02 03:52:49;;;;;;;;;;;6.50;99.90;;;;;;2066799;28;19905;-73
2023/04/02 03:53:50;;;;;;;;;;;6.40;99.90;;;;;;2057231;28;20618;-73
2023/04/02 03:54:50;;;;;;;;;;;6.40;99.90;;;;;;2057725;28;19909;-73
2023/04/02 03:55:53;;;;;;;;;;;6.40;99.90;;;;;;2057504;28;19933;-73
2023/04/02 03:56:53;;;;;;;;;;;6.40;99.90;;;;;;2064008;28;20551;-73
2023/04/02 03:58:12;;;;;;;;;;;6.40;99.90;;;;;;2064877;28;20566;-73
2023/04/02 03:59:12;;;;;;;;;;;6.40;99.90;;;;;;2064741;28;20395;-73
2023/04/02 04:00:18;;;;;;;;;;;6.40;99.90;;;;;;2063438;28;20510;-73
2023/04/02 04:01:22;;;;;;;;;;;6.40;99.90;;;;;;2057769;28;19956;-73
2023/04/02 04:02:41;;;;;;;;;;;6.40;99.90;;;;;;2055937;28;19936;-73
2023/04/02 04:03:49;;;;;;;;;;;6.40;99.90;;;;;;2065755;28;19920;-73
2023/04/02 04:04:51;;;;;;;;;;;6.40;99.90;;;;;;2065860;28;19916;-73
2023/04/02 04:05:58;;;;;;;;;;;6.30;99.90;;;;;;2059399;28;19917;-73
2023/04/02 04:06:59;;;;;;;;;;;6.30;99.90;;;;;;2057962;28;19933;-72
2023/04/02 04:08:02;;;;;;;;;;;6.30;99.90;;;;;;2057672;28;19917;-73
2023/04/02 04:09:23;;;;;;;;;;;6.30;99.90;;;;;;2058392;28;19910;-72
2023/04/02 04:10:24;;;;;;;;;;;6.30;99.90;;;;;;2058216;28;19912;-73
2023/04/02 04:11:27;;;;;;;;;;;6.30;99.90;;;;;;2058139;28;19914;-72
2023/04/02 04:12:30;;;;;;;;;;;6.30;99.90;;;;;;2056970;28;19910;-73
2023/04/02 04:13:35;;;;;;;;;;;6.30;99.90;;;;;;2058657;28;19913;-73
2023/04/02 04:14:39;;;;;;;;;;;6.30;99.90;;;;;;2058546;28;19929;-73
2023/04/02 04:15:45;;;;;;;;;;;6.30;99.90;;;;;;2057390;28;19914;-73
2023/04/02 04:16:54;;;;;;;;;;;6.30;99.90;;;;;;2057940;28;19913;-73
2023/04/02 04:18:18;;;;;;;;;;;6.30;99.90;;;;;;2058415;28;19918;-73
2023/04/02 04:19:28;;;;;;;;;;;6.30;99.90;;;;;;2059543;28;19964;-73
2023/04/02 04:20:33;;;;;;;;;;;6.30;99.90;;;;;;2059511;28;20003;-72
2023/04/02 04:21:36;;;;;;;;;;;6.30;99.90;;;;;;2066573;28;19913;-73
2023/04/02 04:22:37;;;;;;;;;;;6.30;99.90;;;;;;2067140;28;19909;-73
2023/04/02 04:23:39;;;;;;;;;;;6.30;99.90;;;;;;2058961;28;19913;-73
2023/04/02 04:24:44;;;;;;;;;;;6.30;99.90;;;;;;2060633;28;19914;-73
2023/04/02 04:25:49;;;;;;;;;;;6.30;99.90;;;;;;2061148;28;19910;-72
2023/04/02 04:26:52;;;;;;;;;;;6.30;99.90;;;;;;2059429;28;20004;-73
2023/04/02 04:27:52;;;;;;;;;;;6.30;99.90;;;;;;2057702;28;20014;-73
2023/04/02 04:29:12;;;;;;;;;;;6.30;99.90;;;;;;2060310;28;19913;-73
2023/04/02 04:30:17;;;;;;;;;;;6.20;99.90;;;;;;2058598;28;20438;-72
2023/04/02 04:31:21;;;;;;;;;;;6.20;99.90;;;;;;2060474;28;20004;-73
2023/04/02 04:32:26;;;;;;;;;;;6.20;99.90;;;;;;2061327;28;19953;-73
2023/04/02 04:33:38;;;;;;;;;;;6.20;99.90;;;;;;2067129;28;19905;-72
2023/04/02 04:34:45;;;;;;;;;;;6.20;99.90;;;;;;2064987;28;19917;-73
2023/04/02 04:35:48;;;;;;;;;;;6.10;99.90;;;;;;2061890;28;19917;-73
2023/04/02 04:36:53;;;;;;;;;;;6.10;99.90;;;;;;2058730;28;19917;-72
2023/04/02 04:38:02;;;;;;;;;;;6.10;99.90;;;;;;2059453;28;19920;-73
2023/04/02 04:39:13;;;;;;;;;;;6.10;99.90;;;;;;2066013;28;20040;-73
2023/04/02 04:40:15;;;;;;;;;;;6.10;99.90;;;;;;2064566;28;19917;-73
2023/04/02 04:41:19;;;;;;;;;;;6.10;99.90;;;;;;2058740;28;20033;-73
2023/04/02 04:42:22;;;;;;;;;;;6.00;99.90;;;;;;2058977;28;19996;-73
2023/04/02 04:43:29;;;;;;;;;;;6.00;99.90;;;;;;2058290;28;20434;-73
2023/04/02 04:44:43;;;;;;;;;;;6.00;99.90;;;;;;2058913;28;20562;-73
2023/04/02 04:45:49;;;;;;;;;;;6.00;99.90;;;;;;2060040;28;19918;-73
2023/04/02 04:47:02;;;;;;;;;;;6.00;99.90;;;;;;2062549;28;19971;-72
2023/04/02 04:48:12;;;;;;;;;;;6.00;99.90;;;;;;2074672;28;19999;-73
2023/04/02 04:49:31;;;;;;;;;;;6.00;99.90;;;;;;2064343;28;20441;-73
2023/04/02 04:50:34;;;;;;;;;;;6.00;99.90;;;;;;2060532;28;19914;-73
2023/04/02 04:51:38;;;;;;;;;;;5.90;99.90;;;;;;2059480;28;20050;-73
2023/04/02 04:52:39;;;;;;;;;;;5.90;99.90;;;;;;2058370;28;19909;-73
2023/04/02 04:53:44;;;;;;;;;;;5.90;99.90;;;;;;2060135;28;19909;-73
2023/04/02 04:54:45;;;;;;;;;;;5.90;99.90;;;;;;2060018;28;19933;-72
2023/04/02 04:55:47;;;;;;;;;;;5.90;99.90;;;;;;2057541;28;19918;-73
2023/04/02 04:56:50;;;;;;;;;;;5.90;99.90;;;;;;2059518;28;19920;-73
2023/04/02 04:57:53;;;;;;;;;;;5.90;99.90;;;;;;2064810;28;20008;-73
2023/04/02 04:59:02;;;;;;;;;;;5.90;99.90;;;;;;2066229;28;20019;-73
2023/04/02 05:00:05;;;;;;;;;;;5.90;99.90;;;;;;2058477;28;19910;-73
2023/04/02 05:01:11;;;;;;;;;;;5.90;99.90;;;;;;2059906;28;20010;-73
2023/04/02 05:02:22;;;;;;;;;;;5.90;99.90;;;;;;2059063;28;19914;-73
2023/04/02 05:03:31;;;;;;;;;;;5.90;99.90;;;;;;2057933;28;19949;-73
2023/04/02 05:04:37;;;;;;;;;;;5.80;99.90;;;;;;2058630;28;19906;-73
2023/04/02 05:05:38;;;;;;;;;;;5.80;99.90;;;;;;2059295;28;20297;-73
2023/04/02 05:06:43;;;;;;;;;;;5.80;99.90;;;;;;2059093;28;19906;-73
2023/04/02 05:07:48;;;;;;;;;;;5.80;99.90;;;;;;2060331;28;19914;-73
2023/04/02 05:08:50;;;;;;;;;;;5.80;99.90;;;;;;2058945;28;20313;-72
2023/04/02 05:09:51;;;;;;;;;;;5.80;99.90;;;;;;2058048;28;19964;-73
2023/04/02 05:10:55;;;;;;;;;;;5.90;99.90;;;;;;2058072;28;19965;-73
2023/04/02 05:12:14;;;;;;;;;;;5.90;99.90;;;;;;2059077;28;20375;-73
2023/04/02 05:13:19;;;;;;;;;;;5.80;99.90;;;;;;2058555;28;20374;-72
2023/04/02 05:14:25;;;;;;;;;;;5.80;99.90;;;;;;2060767;28;19921;-73
2023/04/02 05:15:26;;;;;;;;;;;5.80;99.90;;;;;;2060421;28;19906;-73
2023/04/02 05:16:40;;;;;;;;;;;5.80;99.90;;;;;;2067483;28;19916;-72
2023/04/02 05:17:40;;;;;;;;;;;5.80;99.90;;;;;;2065213;28;19914;-73
2023/04/02 05:18:59;;;;;;;;;;;5.80;99.90;;;;;;2059163;28;19920;-72
2023/04/02 05:20:08;;;;;;;;;;;5.80;99.90;;;;;;2057783;28;20377;-73
2023/04/02 05:21:12;;;;;;;;;;;5.80;99.90;;;;;;2060350;28;19914;-73
2023/04/02 05:22:27;;;;;;;;;;;5.80;99.90;;;;;;2058634;28;19906;-73
2023/04/02 05:23:29;;;;;;;;;;;5.80;99.90;;;;;;2059645;28;19914;-73
2023/04/02 05:24:50;;;;;;;;;;;5.80;99.90;;;;;;2074991;28;19905;-73
2023/04/02 05:25:52;;;;;;;;;;;5.80;99.90;;;;;;2068612;28;19987;-72
2023/04/02 05:26:57;;;;;;;;;;;5.80;99.90;;;;;;2065569;28;19922;-73
2023/04/02 05:27:57;;;;;;;;;;;5.80;99.90;;;;;;2064212;28;19909;-72
2023/04/02 05:29:01;;;;;;;;;;;5.80;99.90;;;;;;2059350;28;19914;-73
2023/04/02 05:30:10;;;;;;;;;;;5.80;99.90;;;;;;2065982;28;19960;-73
2023/04/02 05:31:14;;;;;;;;;;;5.80;99.90;;;;;;2065774;28;19924;-73
2023/04/02 05:32:17;;;;;;;;;;;5.80;99.90;;;;;;2059477;28;19949;-73
2023/04/02 05:33:27;;;;;;;;;;;5.70;99.90;;;;;;2059516;28;19956;-73
2023/04/02 05:34:30;;;;;;;;;;;5.70;99.90;;;;;;2061225;28;19989;-73
2023/04/02 05:35:33;;;;;;;;;;;5.70;99.90;;;;;;2058662;28;19910;-73
2023/04/02 05:36:33;;;;;;;;;;;5.70;99.90;;;;;;2058938;28;20317;-73
2023/04/02 05:37:37;;;;;;;;;;;5.70;99.90;;;;;;2059109;28;19910;-73
2023/04/02 05:38:43;;;;;;;;;;;5.70;99.90;;;;;;2058103;28;19910;-72
2023/04/02 05:39:44;;;;;;;;;;;5.70;99.90;;;;;;2059205;28;19914;-73
2023/04/02 05:40:46;;;;;;;;;;;5.60;99.90;;;;;;2058703;28;19910;-72
2023/04/02 05:41:47;;;;;;;;;;;5.70;99.90;;;;;;2057724;28;19914;-73
2023/04/02 05:42:48;;;;;;;;;;;5.60;99.90;;;;;;2058928;28;19917;-73
2023/04/02 05:43:53;;;;;;;;;;;5.60;99.90;;;;;;2059524;28;19914;-72
2023/04/02 05:44:56;;;;;;;;;;;5.60;99.90;;;;;;2059609;28;20318;-73
2023/04/02 05:45:58;;;;;;;;;;;5.60;99.90;;;;;;2058983;28;20381;-73
2023/04/02 05:47:12;;;;;;;;;;;5.60;99.90;;;;;;2059094;28;19930;-73
2023/04/02 05:48:20;;;;;;;;;;;5.70;99.90;;;;;;2057746;28;19921;-73
2023/04/02 05:49:27;;;;;;;;;;;5.60;99.90;;;;;;2065285;28;19905;-73
2023/04/02 05:50:29;;;;;;;;;;;5.60;99.90;;;;;;2063964;28;19913;-72
2023/04/02 05:51:35;;;;;;;;;;;5.60;99.90;;;;;;2058770;28;19918;-73
2023/04/02 05:52:38;;;;;;;;;;;5.60;99.90;;;;;;2059263;28;19968;-73
2023/04/02 05:53:40;;;;;;;;;;;5.60;99.90;;;;;;2060618;28;19910;-73
2023/04/02 05:54:46;;;;;;;;;;;5.60;99.90;;;;;;2060166;28;20286;-73
2023/04/02 05:55:53;;;;;;;;;;;5.60;99.90;;;;;;2058883;28;19916;-73
2023/04/02 05:56:56;;;;;;;;;;;5.60;99.90;;;;;;2059170;28;20621;-73
2023/04/02 05:58:06;;;;;;;;;;;5.60;99.90;;;;;;2060249;28;20375;-73
2023/04/02 05:59:11;;;;;;;;;;;5.60;99.90;;;;;;2059147;28;20000;-73
2023/04/02 06:00:17;;;;;;;;;;;5.60;99.90;;;;;;2059736;28;19948;-73
2023/04/02 06:01:24;;;;;;;;;;;5.60;99.90;;;;;;2059562;28;20357;-73
2023/04/02 06:02:24;;;;;;;;;;;5.60;99.90;;;;;;2057187;28;20800;-73
2023/04/02 06:03:31;;;;;;;;;;;5.60;99.90;;;;;;2057475;28;20356;-72
2023/04/02 06:04:31;;;;;;;;;;;5.70;99.90;;;;;;2058709;28;19920;-73
2023/04/02 06:05:34;;;;;;;;;;;5.70;99.90;;;;;;2058389;28;20389;-73
2023/04/02 06:06:38;;;;;;;;;;;5.60;99.90;;;;;;2059714;28;19920;-73
2023/04/02 06:07:54;;;;;;;;;;;5.60;99.90;;;;;;2058014;28;19945;-73
2023/04/02 06:08:58;;;;;;;;;;;5.60;99.90;;;;;;2059727;28;19920;-73
2023/04/02 06:09:59;;;;;;;;;;;5.60;99.90;;;;;;2058974;28;20762;-73
2023/04/02 06:11:06;;;;;;;;;;;5.60;99.90;;;;;;2058412;28;20001;-73
2023/04/02 06:12:11;;;;;;;;;;;5.60;99.90;;;;;;2058131;28;20602;-73
2023/04/02 06:13:15;;;;;;;;;;;5.60;99.90;;;;;;2063961;28;20045;-73
2023/04/02 06:14:15;;;;;;;;;;;5.60;99.90;;;;;;2064860;28;19914;-73
2023/04/02 06:15:17;;;;;;;;;;;5.60;99.90;;;;;;2058515;28;19968;-73
2023/04/02 06:16:19;;;;;;;;;;;5.60;99.90;;;;;;2064730;28;19914;-73
2023/04/02 06:17:20;;;;;;;;;;;5.60;99.90;;;;;;2066627;28;19917;-72
2023/04/02 06:18:21;;;;;;;;;;;5.60;99.90;;;;;;2059020;28;20251;-73
2023/04/02 06:19:26;;;;;;;;;;;5.60;99.90;;;;;;2058452;28;20000;-73
2023/04/02 06:20:27;;;;;;;;;;;5.50;99.90;;;;;;2058862;28;19913;-73
2023/04/02 06:21:27;;;;;;;;;;;5.60;99.90;;;;;;2059542;28;19917;-73
2023/04/02 06:22:38;;;;;;;;;;;5.60;99.90;;;;;;2059097;28;19913;-73
2023/04/02 06:23:41;;;;;;;;;;;5.60;99.90;;;;;;2058756;28;19910;-73
2023/04/02 06:24:42;;;;;;;;;;;5.60;99.90;;;;;;2058888;28;19913;-73
2023/04/02 06:25:45;;;;;;;;;;;5.60;99.90;;;;;;2058395;28;19910;-73
2023/04/02 06:27:07;;;;;;;;;;;5.60;99.90;;;;;;2058737;28;19929;-73
2023/04/02 06:28:13;;;;;;;;;;;5.60;99.90;;;;;;2059106;28;19918;-73